sensor_id;sensor_type;location;lat;lon;timestamp;P1;durP1;ratioP1;P2;durP2;ratioP2
14847;SDS011;7516;43.570;1.448;2023-03-13T00:00:59;4.40;;;3.33;;
14847;SDS011;7516;43.570;1.448;2023-03-13T00:03:28;5.00;;;3.60;;
14847;SDS011;7516;43.570;1.448;2023-03-13T00:05:55;5.00;;;3.50;;
14847;SDS011;7516;43.570;1.448;2023-03-13T00:08:23;4.50;;;3.73;;
14847;SDS011;7516;43.570;1.448;2023-03-13T00:10:53;5.67;;;3.70;;
14847;SDS011;7516;43.570;1.448;2023-03-13T00:13:21;5.90;;;3.37;;
14847;SDS011;7516;43.570;1.448;2023-03-13T00:15:48;4.93;;;3.80;;
14847;SDS011;7516;43.570;1.448;2023-03-13T00:18:25;3.93;;;3.00;;
14847;SDS011;7516;43.570;1.448;2023-03-13T00:20:56;4.77;;;2.80;;
14847;SDS011;7516;43.570;1.448;2023-03-13T00:23:24;3.50;;;2.50;;
14847;SDS011;7516;43.570;1.448;2023-03-13T00:25:55;3.63;;;2.60;;
14847;SDS011;7516;43.570;1.448;2023-03-13T00:28:23;3.27;;;2.53;;
14847;SDS011;7516;43.570;1.448;2023-03-13T00:30:50;3.10;;;2.50;;
14847;SDS011;7516;43.570;1.448;2023-03-13T00:33:26;4.77;;;2.60;;
14847;SDS011;7516;43.570;1.448;2023-03-13T00:35:56;4.43;;;2.70;;
14847;SDS011;7516;43.570;1.448;2023-03-13T00:38:24;4.50;;;3.07;;
14847;SDS011;7516;43.570;1.448;2023-03-13T00:40:58;3.27;;;2.90;;
14847;SDS011;7516;43.570;1.448;2023-03-13T00:43:26;3.80;;;3.10;;
14847;SDS011;7516;43.570;1.448;2023-03-13T00:45:54;4.57;;;2.90;;
14847;SDS011;7516;43.570;1.448;2023-03-13T00:48:21;2.97;;;2.50;;
14847;SDS011;7516;43.570;1.448;2023-03-13T00:50:50;3.80;;;2.80;;
14847;SDS011;7516;43.570;1.448;2023-03-13T00:53:18;3.87;;;2.70;;
14847;SDS011;7516;43.570;1.448;2023-03-13T00:55:52;3.33;;;2.93;;
14847;SDS011;7516;43.570;1.448;2023-03-13T00:58:22;3.93;;;2.83;;
14847;SDS011;7516;43.570;1.448;2023-03-13T01:00:50;4.80;;;2.80;;
14847;SDS011;7516;43.570;1.448;2023-03-13T01:03:18;3.70;;;2.70;;
14847;SDS011;7516;43.570;1.448;2023-03-13T01:05:55;4.33;;;3.00;;
14847;SDS011;7516;43.570;1.448;2023-03-13T01:08:22;3.33;;;2.87;;
14847;SDS011;7516;43.570;1.448;2023-03-13T01:10:50;4.47;;;3.40;;
14847;SDS011;7516;43.570;1.448;2023-03-13T01:13:23;4.63;;;3.67;;
14847;SDS011;7516;43.570;1.448;2023-03-13T01:15:51;4.33;;;3.50;;
14847;SDS011;7516;43.570;1.448;2023-03-13T01:18:19;5.03;;;3.47;;
14847;SDS011;7516;43.570;1.448;2023-03-13T01:20:46;6.10;;;3.80;;
14847;SDS011;7516;43.570;1.448;2023-03-13T01:23:15;5.20;;;3.47;;
14847;SDS011;7516;43.570;1.448;2023-03-13T01:25:42;4.47;;;3.30;;
14847;SDS011;7516;43.570;1.448;2023-03-13T01:28:10;4.07;;;3.47;;
14847;SDS011;7516;43.570;1.448;2023-03-13T01:30:37;3.87;;;3.43;;
14847;SDS011;7516;43.570;1.448;2023-03-13T01:33:05;3.83;;;3.20;;
14847;SDS011;7516;43.570;1.448;2023-03-13T01:35:32;3.90;;;3.00;;
14847;SDS011;7516;43.570;1.448;2023-03-13T01:38:00;4.73;;;3.67;;
14847;SDS011;7516;43.570;1.448;2023-03-13T01:40:29;3.97;;;3.27;;
14847;SDS011;7516;43.570;1.448;2023-03-13T01:42:57;5.20;;;3.53;;
14847;SDS011;7516;43.570;1.448;2023-03-13T01:48:23;6.20;;;3.53;;
14847;SDS011;7516;43.570;1.448;2023-03-13T01:50:53;4.07;;;3.10;;
14847;SDS011;7516;43.570;1.448;2023-03-13T01:53:22;3.43;;;2.90;;
14847;SDS011;7516;43.570;1.448;2023-03-13T01:55:52;4.13;;;3.30;;
14847;SDS011;7516;43.570;1.448;2023-03-13T01:58:21;4.07;;;2.90;;
14847;SDS011;7516;43.570;1.448;2023-03-13T02:00:48;5.43;;;3.20;;
14847;SDS011;7516;43.570;1.448;2023-03-13T02:03:16;4.60;;;3.17;;
14847;SDS011;7516;43.570;1.448;2023-03-13T02:05:46;4.20;;;3.50;;
14847;SDS011;7516;43.570;1.448;2023-03-13T02:08:16;4.70;;;3.43;;
14847;SDS011;7516;43.570;1.448;2023-03-13T02:10:48;4.97;;;3.03;;
14847;SDS011;7516;43.570;1.448;2023-03-13T02:13:21;4.80;;;3.20;;
14847;SDS011;7516;43.570;1.448;2023-03-13T02:15:49;4.13;;;3.20;;
14847;SDS011;7516;43.570;1.448;2023-03-13T02:18:17;4.60;;;3.50;;
14847;SDS011;7516;43.570;1.448;2023-03-13T02:20:45;4.47;;;3.33;;
14847;SDS011;7516;43.570;1.448;2023-03-13T02:23:17;4.13;;;3.20;;
14847;SDS011;7516;43.570;1.448;2023-03-13T02:25:51;4.67;;;3.17;;
14847;SDS011;7516;43.570;1.448;2023-03-13T02:28:20;4.17;;;3.30;;
14847;SDS011;7516;43.570;1.448;2023-03-13T02:30:50;4.10;;;3.23;;
14847;SDS011;7516;43.570;1.448;2023-03-13T02:33:21;4.13;;;3.30;;
14847;SDS011;7516;43.570;1.448;2023-03-13T02:35:52;4.43;;;3.23;;
14847;SDS011;7516;43.570;1.448;2023-03-13T02:38:23;3.77;;;3.43;;
14847;SDS011;7516;43.570;1.448;2023-03-13T02:40:53;3.73;;;3.27;;
14847;SDS011;7516;43.570;1.448;2023-03-13T02:43:26;4.47;;;3.43;;
14847;SDS011;7516;43.570;1.448;2023-03-13T02:46:01;4.50;;;3.37;;
14847;SDS011;7516;43.570;1.448;2023-03-13T02:48:30;3.93;;;3.53;;
14847;SDS011;7516;43.570;1.448;2023-03-13T02:50:59;5.60;;;3.27;;
14847;SDS011;7516;43.570;1.448;2023-03-13T02:53:29;4.57;;;3.40;;
14847;SDS011;7516;43.570;1.448;2023-03-13T02:55:59;3.77;;;3.40;;
14847;SDS011;7516;43.570;1.448;2023-03-13T02:58:34;3.33;;;3.03;;
14847;SDS011;7516;43.570;1.448;2023-03-13T03:01:03;4.77;;;3.30;;
14847;SDS011;7516;43.570;1.448;2023-03-13T03:03:32;3.47;;;3.17;;
14847;SDS011;7516;43.570;1.448;2023-03-13T03:06:01;3.57;;;2.70;;
14847;SDS011;7516;43.570;1.448;2023-03-13T03:08:30;3.67;;;3.20;;
14847;SDS011;7516;43.570;1.448;2023-03-13T03:10:59;3.47;;;3.10;;
14847;SDS011;7516;43.570;1.448;2023-03-13T03:13:27;4.03;;;2.93;;
14847;SDS011;7516;43.570;1.448;2023-03-13T03:15:55;4.67;;;3.27;;
14847;SDS011;7516;43.570;1.448;2023-03-13T03:18:22;4.27;;;2.93;;
14847;SDS011;7516;43.570;1.448;2023-03-13T03:20:50;3.90;;;2.90;;
14847;SDS011;7516;43.570;1.448;2023-03-13T03:23:18;3.30;;;3.00;;
14847;SDS011;7516;43.570;1.448;2023-03-13T03:25:45;3.30;;;3.00;;
14847;SDS011;7516;43.570;1.448;2023-03-13T03:28:14;4.00;;;3.10;;
14847;SDS011;7516;43.570;1.448;2023-03-13T03:30:41;6.57;;;3.43;;
14847;SDS011;7516;43.570;1.448;2023-03-13T03:33:09;3.20;;;2.90;;
14847;SDS011;7516;43.570;1.448;2023-03-13T03:35:36;4.33;;;3.10;;
14847;SDS011;7516;43.570;1.448;2023-03-13T03:38:04;4.17;;;3.07;;
14847;SDS011;7516;43.570;1.448;2023-03-13T03:40:32;3.73;;;3.20;;
14847;SDS011;7516;43.570;1.448;2023-03-13T03:42:59;4.30;;;3.00;;
14847;SDS011;7516;43.570;1.448;2023-03-13T03:45:28;3.70;;;3.27;;
14847;SDS011;7516;43.570;1.448;2023-03-13T03:47:56;3.70;;;3.40;;
14847;SDS011;7516;43.570;1.448;2023-03-13T03:50:25;4.63;;;3.30;;
14847;SDS011;7516;43.570;1.448;2023-03-13T03:52:53;3.83;;;3.43;;
14847;SDS011;7516;43.570;1.448;2023-03-13T03:55:20;3.40;;;3.10;;
14847;SDS011;7516;43.570;1.448;2023-03-13T03:57:48;3.50;;;3.20;;
14847;SDS011;7516;43.570;1.448;2023-03-13T04:00:15;3.47;;;3.17;;
14847;SDS011;7516;43.570;1.448;2023-03-13T04:02:45;4.67;;;4.10;;
14847;SDS011;7516;43.570;1.448;2023-03-13T04:05:13;3.57;;;3.10;;
14847;SDS011;7516;43.570;1.448;2023-03-13T04:07:41;3.63;;;3.20;;
14847;SDS011;7516;43.570;1.448;2023-03-13T04:10:09;3.93;;;3.33;;
14847;SDS011;7516;43.570;1.448;2023-03-13T04:12:36;3.67;;;2.90;;
14847;SDS011;7516;43.570;1.448;2023-03-13T04:15:05;4.40;;;3.20;;
14847;SDS011;7516;43.570;1.448;2023-03-13T04:17:33;3.27;;;2.90;;
14847;SDS011;7516;43.570;1.448;2023-03-13T04:20:02;4.13;;;3.10;;
14847;SDS011;7516;43.570;1.448;2023-03-13T04:22:31;3.57;;;3.20;;
14847;SDS011;7516;43.570;1.448;2023-03-13T04:24:59;4.37;;;3.17;;
14847;SDS011;7516;43.570;1.448;2023-03-13T04:27:26;3.87;;;2.80;;
14847;SDS011;7516;43.570;1.448;2023-03-13T04:29:54;3.20;;;2.90;;
14847;SDS011;7516;43.570;1.448;2023-03-13T04:32:21;3.57;;;3.00;;
14847;SDS011;7516;43.570;1.448;2023-03-13T04:34:49;3.90;;;3.03;;
14847;SDS011;7516;43.570;1.448;2023-03-13T04:37:18;4.23;;;2.70;;
14847;SDS011;7516;43.570;1.448;2023-03-13T04:39:45;3.07;;;2.77;;
14847;SDS011;7516;43.570;1.448;2023-03-13T04:42:13;4.07;;;2.77;;
14847;SDS011;7516;43.570;1.448;2023-03-13T04:44:40;3.43;;;2.80;;
14847;SDS011;7516;43.570;1.448;2023-03-13T04:47:07;3.50;;;2.67;;
14847;SDS011;7516;43.570;1.448;2023-03-13T04:49:35;3.07;;;2.73;;
14847;SDS011;7516;43.570;1.448;2023-03-13T04:52:03;2.80;;;2.60;;
14847;SDS011;7516;43.570;1.448;2023-03-13T04:54:32;3.37;;;2.63;;
14847;SDS011;7516;43.570;1.448;2023-03-13T04:56:59;5.23;;;2.93;;
14847;SDS011;7516;43.570;1.448;2023-03-13T04:59:27;2.83;;;2.53;;
14847;SDS011;7516;43.570;1.448;2023-03-13T05:01:55;3.63;;;2.70;;
14847;SDS011;7516;43.570;1.448;2023-03-13T05:04:22;3.63;;;2.90;;
14847;SDS011;7516;43.570;1.448;2023-03-13T05:06:49;3.10;;;2.70;;
14847;SDS011;7516;43.570;1.448;2023-03-13T05:09:17;3.10;;;2.70;;
14847;SDS011;7516;43.570;1.448;2023-03-13T05:11:46;2.53;;;2.33;;
14847;SDS011;7516;43.570;1.448;2023-03-13T05:14:14;3.30;;;2.70;;
14847;SDS011;7516;43.570;1.448;2023-03-13T05:16:41;3.03;;;2.70;;
14847;SDS011;7516;43.570;1.448;2023-03-13T05:19:09;2.40;;;2.20;;
14847;SDS011;7516;43.570;1.448;2023-03-13T05:21:36;2.50;;;2.30;;
14847;SDS011;7516;43.570;1.448;2023-03-13T05:24:04;2.73;;;2.33;;
14847;SDS011;7516;43.570;1.448;2023-03-13T05:26:32;2.60;;;2.40;;
14847;SDS011;7516;43.570;1.448;2023-03-13T05:29:00;3.10;;;2.10;;
14847;SDS011;7516;43.570;1.448;2023-03-13T05:31:28;4.10;;;2.40;;
14847;SDS011;7516;43.570;1.448;2023-03-13T05:33:55;3.60;;;2.67;;
14847;SDS011;7516;43.570;1.448;2023-03-13T05:36:23;3.57;;;2.47;;
14847;SDS011;7516;43.570;1.448;2023-03-13T05:38:50;3.63;;;2.50;;
14847;SDS011;7516;43.570;1.448;2023-03-13T05:41:18;3.23;;;2.53;;
14847;SDS011;7516;43.570;1.448;2023-03-13T05:43:45;2.97;;;2.47;;
14847;SDS011;7516;43.570;1.448;2023-03-13T05:46:14;2.77;;;2.27;;
14847;SDS011;7516;43.570;1.448;2023-03-13T05:48:42;2.40;;;2.07;;
14847;SDS011;7516;43.570;1.448;2023-03-13T05:51:09;2.60;;;2.13;;
14847;SDS011;7516;43.570;1.448;2023-03-13T05:53:37;4.97;;;2.30;;
14847;SDS011;7516;43.570;1.448;2023-03-13T05:56:04;2.43;;;1.70;;
14847;SDS011;7516;43.570;1.448;2023-03-13T05:58:32;2.27;;;1.70;;
14847;SDS011;7516;43.570;1.448;2023-03-13T06:01:04;2.00;;;1.80;;
14847;SDS011;7516;43.570;1.448;2023-03-13T06:03:34;1.50;;;1.40;;
14847;SDS011;7516;43.570;1.448;2023-03-13T06:06:01;2.37;;;1.50;;
14847;SDS011;7516;43.570;1.448;2023-03-13T06:08:29;1.80;;;1.40;;
14847;SDS011;7516;43.570;1.448;2023-03-13T06:10:57;1.90;;;1.57;;
14847;SDS011;7516;43.570;1.448;2023-03-13T06:13:25;2.03;;;1.43;;
14847;SDS011;7516;43.570;1.448;2023-03-13T06:15:53;1.60;;;1.50;;
14847;SDS011;7516;43.570;1.448;2023-03-13T06:18:23;2.77;;;1.63;;
14847;SDS011;7516;43.570;1.448;2023-03-13T06:20:55;2.00;;;1.50;;
14847;SDS011;7516;43.570;1.448;2023-03-13T06:23:24;2.10;;;1.80;;
14847;SDS011;7516;43.570;1.448;2023-03-13T06:25:52;2.53;;;1.93;;
14847;SDS011;7516;43.570;1.448;2023-03-13T06:28:20;2.40;;;1.70;;
14847;SDS011;7516;43.570;1.448;2023-03-13T06:30:48;4.13;;;2.07;;
14847;SDS011;7516;43.570;1.448;2023-03-13T06:33:15;3.70;;;1.80;;
14847;SDS011;7516;43.570;1.448;2023-03-13T06:35:43;4.23;;;2.00;;
14847;SDS011;7516;43.570;1.448;2023-03-13T06:38:12;3.53;;;2.37;;
14847;SDS011;7516;43.570;1.448;2023-03-13T06:40:39;3.10;;;2.20;;
14847;SDS011;7516;43.570;1.448;2023-03-13T06:43:06;2.93;;;2.03;;
14847;SDS011;7516;43.570;1.448;2023-03-13T06:45:34;2.90;;;2.20;;
14847;SDS011;7516;43.570;1.448;2023-03-13T06:48:02;3.23;;;2.27;;
14847;SDS011;7516;43.570;1.448;2023-03-13T06:50:30;3.77;;;2.13;;
14847;SDS011;7516;43.570;1.448;2023-03-13T06:52:57;4.13;;;3.10;;
14847;SDS011;7516;43.570;1.448;2023-03-13T06:55:26;5.00;;;2.37;;
14847;SDS011;7516;43.570;1.448;2023-03-13T06:57:54;2.10;;;1.90;;
14847;SDS011;7516;43.570;1.448;2023-03-13T07:00:21;3.27;;;2.10;;
14847;SDS011;7516;43.570;1.448;2023-03-13T07:02:49;3.13;;;2.43;;
14847;SDS011;7516;43.570;1.448;2023-03-13T07:05:18;3.33;;;2.70;;
14847;SDS011;7516;43.570;1.448;2023-03-13T07:07:45;2.57;;;2.00;;
14847;SDS011;7516;43.570;1.448;2023-03-13T07:10:12;4.53;;;2.50;;
14847;SDS011;7516;43.570;1.448;2023-03-13T07:12:41;3.60;;;2.90;;
14847;SDS011;7516;43.570;1.448;2023-03-13T07:15:09;5.87;;;3.03;;
14847;SDS011;7516;43.570;1.448;2023-03-13T07:17:37;5.40;;;2.77;;
14847;SDS011;7516;43.570;1.448;2023-03-13T07:20:05;5.80;;;3.83;;
14847;SDS011;7516;43.570;1.448;2023-03-13T07:22:34;2.97;;;2.23;;
14847;SDS011;7516;43.570;1.448;2023-03-13T07:25:03;2.70;;;2.17;;
14847;SDS011;7516;43.570;1.448;2023-03-13T07:27:32;4.27;;;1.67;;
14847;SDS011;7516;43.570;1.448;2023-03-13T07:30:00;2.40;;;1.90;;
14847;SDS011;7516;43.570;1.448;2023-03-13T07:32:30;3.60;;;2.30;;
14847;SDS011;7516;43.570;1.448;2023-03-13T07:34:58;2.87;;;1.70;;
14847;SDS011;7516;43.570;1.448;2023-03-13T07:37:27;2.67;;;1.80;;
14847;SDS011;7516;43.570;1.448;2023-03-13T07:39:55;3.83;;;1.93;;
14847;SDS011;7516;43.570;1.448;2023-03-13T07:42:22;2.50;;;1.73;;
14847;SDS011;7516;43.570;1.448;2023-03-13T07:44:49;5.70;;;2.03;;
14847;SDS011;7516;43.570;1.448;2023-03-13T07:47:20;1.97;;;1.40;;
14847;SDS011;7516;43.570;1.448;2023-03-13T07:49:47;2.67;;;1.27;;
14847;SDS011;7516;43.570;1.448;2023-03-13T07:52:15;3.33;;;1.47;;
14847;SDS011;7516;43.570;1.448;2023-03-13T07:54:43;2.70;;;1.17;;
14847;SDS011;7516;43.570;1.448;2023-03-13T07:57:10;1.23;;;0.90;;
14847;SDS011;7516;43.570;1.448;2023-03-13T07:59:37;2.30;;;0.90;;
14847;SDS011;7516;43.570;1.448;2023-03-13T08:02:05;2.53;;;1.00;;
14847;SDS011;7516;43.570;1.448;2023-03-13T08:04:35;1.53;;;1.10;;
14847;SDS011;7516;43.570;1.448;2023-03-13T08:07:05;3.50;;;1.00;;
14847;SDS011;7516;43.570;1.448;2023-03-13T08:09:34;1.63;;;1.17;;
14847;SDS011;7516;43.570;1.448;2023-03-13T08:12:01;1.63;;;0.90;;
14847;SDS011;7516;43.570;1.448;2023-03-13T08:14:29;2.27;;;1.20;;
14847;SDS011;7516;43.570;1.448;2023-03-13T08:16:56;2.40;;;0.90;;
14847;SDS011;7516;43.570;1.448;2023-03-13T08:19:24;2.43;;;1.00;;
14847;SDS011;7516;43.570;1.448;2023-03-13T08:21:53;2.40;;;1.20;;
14847;SDS011;7516;43.570;1.448;2023-03-13T08:24:20;3.57;;;1.10;;
14847;SDS011;7516;43.570;1.448;2023-03-13T08:26:48;2.77;;;0.90;;
14847;SDS011;7516;43.570;1.448;2023-03-13T08:29:15;1.57;;;0.90;;
14847;SDS011;7516;43.570;1.448;2023-03-13T08:31:46;3.00;;;1.03;;
14847;SDS011;7516;43.570;1.448;2023-03-13T08:34:15;2.43;;;1.10;;
14847;SDS011;7516;43.570;1.448;2023-03-13T08:36:44;2.20;;;1.07;;
14847;SDS011;7516;43.570;1.448;2023-03-13T08:39:14;0.47;;;0.40;;
14847;SDS011;7516;43.570;1.448;2023-03-13T08:41:42;0.70;;;0.40;;
14847;SDS011;7516;43.570;1.448;2023-03-13T08:44:11;1.10;;;0.77;;
14847;SDS011;7516;43.570;1.448;2023-03-13T08:46:40;1.40;;;0.43;;
14847;SDS011;7516;43.570;1.448;2023-03-13T08:49:08;3.60;;;0.90;;
14847;SDS011;7516;43.570;1.448;2023-03-13T08:51:36;1.77;;;0.60;;
14847;SDS011;7516;43.570;1.448;2023-03-13T08:54:04;1.00;;;0.73;;
14847;SDS011;7516;43.570;1.448;2023-03-13T08:56:33;1.43;;;0.80;;
14847;SDS011;7516;43.570;1.448;2023-03-13T08:59:02;2.70;;;1.00;;
14847;SDS011;7516;43.570;1.448;2023-03-13T09:01:34;2.03;;;0.60;;
14847;SDS011;7516;43.570;1.448;2023-03-13T09:04:03;1.93;;;0.90;;
14847;SDS011;7516;43.570;1.448;2023-03-13T09:06:31;0.50;;;0.40;;
14847;SDS011;7516;43.570;1.448;2023-03-13T09:08:59;2.40;;;0.80;;
14847;SDS011;7516;43.570;1.448;2023-03-13T09:11:27;2.47;;;1.00;;
14847;SDS011;7516;43.570;1.448;2023-03-13T09:13:56;1.50;;;0.83;;
14847;SDS011;7516;43.570;1.448;2023-03-13T09:16:25;1.70;;;0.80;;
14847;SDS011;7516;43.570;1.448;2023-03-13T09:18:54;2.20;;;1.13;;
14847;SDS011;7516;43.570;1.448;2023-03-13T09:21:23;4.20;;;1.10;;
14847;SDS011;7516;43.570;1.448;2023-03-13T09:23:51;0.33;;;0.30;;
14847;SDS011;7516;43.570;1.448;2023-03-13T09:26:19;1.97;;;1.03;;
14847;SDS011;7516;43.570;1.448;2023-03-13T09:28:47;3.07;;;0.80;;
14847;SDS011;7516;43.570;1.448;2023-03-13T09:31:17;6.40;;;1.30;;
14847;SDS011;7516;43.570;1.448;2023-03-13T09:33:47;2.90;;;0.90;;
14847;SDS011;7516;43.570;1.448;2023-03-13T09:36:16;0.80;;;0.60;;
14847;SDS011;7516;43.570;1.448;2023-03-13T09:38:44;0.83;;;0.50;;
14847;SDS011;7516;43.570;1.448;2023-03-13T09:41:23;2.33;;;0.90;;
14847;SDS011;7516;43.570;1.448;2023-03-13T09:43:53;5.37;;;1.13;;
14847;SDS011;7516;43.570;1.448;2023-03-13T09:46:27;2.50;;;1.00;;
14847;SDS011;7516;43.570;1.448;2023-03-13T09:49:03;6.07;;;1.60;;
14847;SDS011;7516;43.570;1.448;2023-03-13T09:51:36;3.17;;;0.80;;
14847;SDS011;7516;43.570;1.448;2023-03-13T09:54:07;4.10;;;1.43;;
14847;SDS011;7516;43.570;1.448;2023-03-13T09:56:44;1.10;;;0.60;;
14847;SDS011;7516;43.570;1.448;2023-03-13T09:59:18;2.70;;;1.27;;
14847;SDS011;7516;43.570;1.448;2023-03-13T10:01:51;2.20;;;0.73;;
14847;SDS011;7516;43.570;1.448;2023-03-13T10:04:25;1.70;;;1.03;;
14847;SDS011;7516;43.570;1.448;2023-03-13T10:06:56;4.13;;;1.60;;
14847;SDS011;7516;43.570;1.448;2023-03-13T10:09:25;5.50;;;1.57;;
14847;SDS011;7516;43.570;1.448;2023-03-13T10:11:57;2.40;;;0.90;;
14847;SDS011;7516;43.570;1.448;2023-03-13T10:14:33;1.70;;;1.00;;
14847;SDS011;7516;43.570;1.448;2023-03-13T10:17:12;3.47;;;1.20;;
14847;SDS011;7516;43.570;1.448;2023-03-13T10:19:50;2.13;;;0.90;;
14847;SDS011;7516;43.570;1.448;2023-03-13T10:22:24;8.50;;;2.10;;
14847;SDS011;7516;43.570;1.448;2023-03-13T10:24:55;3.20;;;1.30;;
14847;SDS011;7516;43.570;1.448;2023-03-13T10:27:26;5.87;;;2.20;;
14847;SDS011;7516;43.570;1.448;2023-03-13T10:29:53;9.43;;;1.97;;
14847;SDS011;7516;43.570;1.448;2023-03-13T10:32:22;4.30;;;1.30;;
14847;SDS011;7516;43.570;1.448;2023-03-13T10:34:54;4.80;;;1.40;;
14847;SDS011;7516;43.570;1.448;2023-03-13T10:37:25;2.30;;;1.07;;
14847;SDS011;7516;43.570;1.448;2023-03-13T10:39:54;3.17;;;1.17;;
14847;SDS011;7516;43.570;1.448;2023-03-13T10:42:39;5.60;;;1.97;;
14847;SDS011;7516;43.570;1.448;2023-03-13T10:45:13;2.37;;;0.80;;
14847;SDS011;7516;43.570;1.448;2023-03-13T10:47:44;0.90;;;0.73;;
14847;SDS011;7516;43.570;1.448;2023-03-13T10:50:20;2.87;;;1.50;;
14847;SDS011;7516;43.570;1.448;2023-03-13T10:52:51;3.80;;;1.83;;
14847;SDS011;7516;43.570;1.448;2023-03-13T10:55:20;2.13;;;0.87;;
14847;SDS011;7516;43.570;1.448;2023-03-13T10:57:51;2.60;;;1.10;;
14847;SDS011;7516;43.570;1.448;2023-03-13T11:00:27;3.10;;;1.50;;
14847;SDS011;7516;43.570;1.448;2023-03-13T11:03:00;1.37;;;0.87;;
14847;SDS011;7516;43.570;1.448;2023-03-13T11:05:32;3.10;;;1.67;;
14847;SDS011;7516;43.570;1.448;2023-03-13T11:08:10;2.50;;;1.10;;
14847;SDS011;7516;43.570;1.448;2023-03-13T11:10:55;1.77;;;1.07;;
14847;SDS011;7516;43.570;1.448;2023-03-13T11:13:26;1.60;;;0.87;;
14847;SDS011;7516;43.570;1.448;2023-03-13T11:16:09;3.53;;;2.33;;
14847;SDS011;7516;43.570;1.448;2023-03-13T11:18:50;3.90;;;1.63;;
14847;SDS011;7516;43.570;1.448;2023-03-13T11:21:36;4.77;;;2.70;;
14847;SDS011;7516;43.570;1.448;2023-03-13T11:24:11;2.97;;;1.70;;
14847;SDS011;7516;43.570;1.448;2023-03-13T11:26:45;3.30;;;1.80;;
14847;SDS011;7516;43.570;1.448;2023-03-13T11:29:21;2.37;;;0.83;;
14847;SDS011;7516;43.570;1.448;2023-03-13T11:31:56;2.30;;;1.27;;
14847;SDS011;7516;43.570;1.448;2023-03-13T11:34:30;5.33;;;1.97;;
14847;SDS011;7516;43.570;1.448;2023-03-13T11:37:08;6.00;;;2.07;;
14847;SDS011;7516;43.570;1.448;2023-03-13T11:39:41;1.97;;;1.23;;
14847;SDS011;7516;43.570;1.448;2023-03-13T11:42:30;4.63;;;1.50;;
14847;SDS011;7516;43.570;1.448;2023-03-13T11:45:11;2.97;;;1.57;;
14847;SDS011;7516;43.570;1.448;2023-03-13T11:47:54;4.00;;;1.50;;
14847;SDS011;7516;43.570;1.448;2023-03-13T11:50:38;7.43;;;2.27;;
14847;SDS011;7516;43.570;1.448;2023-03-13T11:53:19;3.47;;;0.90;;
14847;SDS011;7516;43.570;1.448;2023-03-13T11:56:00;2.53;;;1.43;;
14847;SDS011;7516;43.570;1.448;2023-03-13T11:58:44;3.67;;;1.40;;
14847;SDS011;7516;43.570;1.448;2023-03-13T12:01:26;3.63;;;1.60;;
14847;SDS011;7516;43.570;1.448;2023-03-13T12:03:58;5.37;;;1.80;;
14847;SDS011;7516;43.570;1.448;2023-03-13T12:06:33;2.90;;;1.57;;
14847;SDS011;7516;43.570;1.448;2023-03-13T12:09:09;1.73;;;0.93;;
14847;SDS011;7516;43.570;1.448;2023-03-13T12:11:40;5.13;;;1.90;;
14847;SDS011;7516;43.570;1.448;2023-03-13T12:14:12;3.33;;;1.53;;
14847;SDS011;7516;43.570;1.448;2023-03-13T12:16:45;5.80;;;1.90;;
14847;SDS011;7516;43.570;1.448;2023-03-13T12:19:19;3.30;;;2.00;;
14847;SDS011;7516;43.570;1.448;2023-03-13T12:21:53;6.17;;;1.57;;
14847;SDS011;7516;43.570;1.448;2023-03-13T12:24:25;5.50;;;1.90;;
14847;SDS011;7516;43.570;1.448;2023-03-13T12:26:58;6.93;;;2.07;;
14847;SDS011;7516;43.570;1.448;2023-03-13T12:29:36;5.10;;;1.90;;
14847;SDS011;7516;43.570;1.448;2023-03-13T12:32:11;4.03;;;1.50;;
14847;SDS011;7516;43.570;1.448;2023-03-13T12:34:50;4.50;;;1.60;;
14847;SDS011;7516;43.570;1.448;2023-03-13T12:37:27;4.33;;;1.80;;
14847;SDS011;7516;43.570;1.448;2023-03-13T12:40:00;4.37;;;1.90;;
14847;SDS011;7516;43.570;1.448;2023-03-13T12:42:40;5.43;;;2.00;;
14847;SDS011;7516;43.570;1.448;2023-03-13T12:45:13;3.70;;;1.67;;
14847;SDS011;7516;43.570;1.448;2023-03-13T12:50:44;4.20;;;2.00;;
14847;SDS011;7516;43.570;1.448;2023-03-13T12:56:45;6.03;;;2.03;;
14847;SDS011;7516;43.570;1.448;2023-03-13T12:59:25;3.87;;;1.80;;
14847;SDS011;7516;43.570;1.448;2023-03-13T13:01:57;2.97;;;1.87;;
14847;SDS011;7516;43.570;1.448;2023-03-13T13:04:28;4.70;;;2.33;;
14847;SDS011;7516;43.570;1.448;2023-03-13T13:06:58;5.53;;;2.20;;
14847;SDS011;7516;43.570;1.448;2023-03-13T13:09:28;5.50;;;2.40;;
14847;SDS011;7516;43.570;1.448;2023-03-13T13:11:59;4.87;;;2.20;;
14847;SDS011;7516;43.570;1.448;2023-03-13T13:20:24;6.53;;;3.10;;
14847;SDS011;7516;43.570;1.448;2023-03-13T13:23:02;6.37;;;2.40;;
14847;SDS011;7516;43.570;1.448;2023-03-13T13:35:20;5.63;;;2.57;;
14847;SDS011;7516;43.570;1.448;2023-03-13T13:41:05;5.70;;;2.70;;
14847;SDS011;7516;43.570;1.448;2023-03-13T13:46:55;6.60;;;2.83;;
14847;SDS011;7516;43.570;1.448;2023-03-13T13:49:35;4.23;;;2.57;;
14847;SDS011;7516;43.570;1.448;2023-03-13T13:55:01;5.27;;;2.57;;
14847;SDS011;7516;43.570;1.448;2023-03-13T13:57:57;5.47;;;2.60;;
14847;SDS011;7516;43.570;1.448;2023-03-13T14:00:32;4.80;;;2.97;;
14847;SDS011;7516;43.570;1.448;2023-03-13T14:03:15;4.73;;;2.50;;
14847;SDS011;7516;43.570;1.448;2023-03-13T14:05:50;6.47;;;3.10;;
14847;SDS011;7516;43.570;1.448;2023-03-13T14:08:20;5.70;;;3.07;;
14847;SDS011;7516;43.570;1.448;2023-03-13T14:10:54;6.50;;;3.20;;
14847;SDS011;7516;43.570;1.448;2023-03-13T14:13:32;6.50;;;3.03;;
14847;SDS011;7516;43.570;1.448;2023-03-13T14:16:09;4.73;;;2.70;;
14847;SDS011;7516;43.570;1.448;2023-03-13T14:18:46;8.10;;;3.40;;
14847;SDS011;7516;43.570;1.448;2023-03-13T14:21:19;4.87;;;3.10;;
14847;SDS011;7516;43.570;1.448;2023-03-13T14:23:47;6.23;;;3.17;;
14847;SDS011;7516;43.570;1.448;2023-03-13T14:26:16;5.83;;;3.20;;
14847;SDS011;7516;43.570;1.448;2023-03-13T14:28:46;6.27;;;3.27;;
14847;SDS011;7516;43.570;1.448;2023-03-13T14:31:22;5.33;;;3.27;;
14847;SDS011;7516;43.570;1.448;2023-03-13T14:33:52;7.60;;;4.00;;
14847;SDS011;7516;43.570;1.448;2023-03-13T14:36:22;6.63;;;3.00;;
14847;SDS011;7516;43.570;1.448;2023-03-13T14:38:50;6.97;;;3.60;;
14847;SDS011;7516;43.570;1.448;2023-03-13T14:41:23;6.30;;;3.57;;
14847;SDS011;7516;43.570;1.448;2023-03-13T14:44:01;5.60;;;3.50;;
14847;SDS011;7516;43.570;1.448;2023-03-13T14:46:31;6.47;;;3.77;;
14847;SDS011;7516;43.570;1.448;2023-03-13T14:49:13;6.87;;;3.57;;
14847;SDS011;7516;43.570;1.448;2023-03-13T14:51:44;6.77;;;3.80;;
14847;SDS011;7516;43.570;1.448;2023-03-13T14:54:23;7.43;;;3.57;;
14847;SDS011;7516;43.570;1.448;2023-03-13T14:59:47;6.50;;;3.50;;
14847;SDS011;7516;43.570;1.448;2023-03-13T15:02:18;6.67;;;3.57;;
14847;SDS011;7516;43.570;1.448;2023-03-13T15:04:50;7.13;;;3.60;;
14847;SDS011;7516;43.570;1.448;2023-03-13T15:07:25;6.07;;;3.30;;
14847;SDS011;7516;43.570;1.448;2023-03-13T15:10:00;5.90;;;3.47;;
14847;SDS011;7516;43.570;1.448;2023-03-13T15:12:43;9.53;;;4.07;;
14847;SDS011;7516;43.570;1.448;2023-03-13T15:15:11;7.77;;;4.00;;
14847;SDS011;7516;43.570;1.448;2023-03-13T15:17:39;7.27;;;3.60;;
14847;SDS011;7516;43.570;1.448;2023-03-13T15:20:08;7.13;;;4.37;;
14847;SDS011;7516;43.570;1.448;2023-03-13T15:22:41;5.70;;;3.80;;
14847;SDS011;7516;43.570;1.448;2023-03-13T15:25:13;6.07;;;4.03;;
14847;SDS011;7516;43.570;1.448;2023-03-13T15:27:42;6.73;;;3.90;;
14847;SDS011;7516;43.570;1.448;2023-03-13T15:30:10;5.77;;;3.73;;
14847;SDS011;7516;43.570;1.448;2023-03-13T15:32:41;9.47;;;3.97;;
14847;SDS011;7516;43.570;1.448;2023-03-13T15:35:17;5.97;;;3.37;;
14847;SDS011;7516;43.570;1.448;2023-03-13T15:37:52;5.13;;;3.40;;
14847;SDS011;7516;43.570;1.448;2023-03-13T15:40:21;6.77;;;3.40;;
14847;SDS011;7516;43.570;1.448;2023-03-13T15:42:49;7.57;;;4.03;;
14847;SDS011;7516;43.570;1.448;2023-03-13T15:45:17;7.73;;;4.10;;
14847;SDS011;7516;43.570;1.448;2023-03-13T15:47:45;5.27;;;3.50;;
14847;SDS011;7516;43.570;1.448;2023-03-13T15:50:13;5.93;;;3.60;;
14847;SDS011;7516;43.570;1.448;2023-03-13T15:52:42;8.13;;;3.47;;
14847;SDS011;7516;43.570;1.448;2023-03-13T15:55:11;7.20;;;3.67;;
14847;SDS011;7516;43.570;1.448;2023-03-13T15:57:40;6.35;;;3.42;;